Time;durP1;ratioP1;P1;durP2;ratioP2;P2;SDS_P1;SDS_P2;PMS_P1;PMS_P2;Temp;Humidity;BMP_temperature;BMP_pressure;BME280_temperature;BME280_humidity;BME280_pressure;Samples;Min_cycle;Max_cycle;Signal;HPM_P1;HPM_P2
2022/03/01 00:02:25;;;;;;;23.02;8.80;;;7.00;81.40;;;;;;4954666;28;20031;-71
2022/03/01 00:04:52;;;;;;;22.05;9.43;;;7.00;81.40;;;;;;4951696;28;20042;-71
2022/03/01 00:07:18;;;;;;;19.98;9.48;;;7.00;81.40;;;;;;4945387;29;20033;-71
2022/03/01 00:09:43;;;;;;;16.75;8.32;;;6.90;81.50;;;;;;4941683;28;20453;-71
2022/03/01 00:12:09;;;;;;;15.45;9.15;;;6.90;81.50;;;;;;4954068;28;20439;-71
2022/03/01 00:14:35;;;;;;;21.33;9.63;;;6.90;81.40;;;;;;4950018;28;20036;-70
2022/03/01 00:17:00;;;;;;;21.33;9.95;;;6.90;81.40;;;;;;4945865;28;20053;-70
2022/03/01 00:19:29;;;;;;;19.42;9.65;;;6.90;81.40;;;;;;4953416;28;20031;-70
2022/03/01 00:21:56;;;;;;;18.15;9.38;;;6.80;81.50;;;;;;4942810;28;20039;-70
2022/03/01 00:24:25;;;;;;;17.52;8.75;;;6.90;81.60;;;;;;4953090;29;20088;-70
2022/03/01 00:26:51;;;;;;;14.88;7.47;;;6.80;81.60;;;;;;4954396;28;20508;-70
2022/03/01 00:29:17;;;;;;;16.50;8.65;;;6.80;81.60;;;;;;4933672;28;20119;-70
2022/03/01 00:31:42;;;;;;;17.92;7.72;;;6.70;81.50;;;;;;4946327;28;20509;-70
2022/03/01 00:34:08;;;;;;;19.90;8.23;;;6.70;81.50;;;;;;4953873;29;20024;-70
2022/03/01 00:36:36;;;;;;;17.02;8.80;;;6.70;82.10;;;;;;4940655;28;20039;-70
2022/03/01 00:39:03;;;;;;;18.60;8.43;;;6.70;81.40;;;;;;4940816;29;20067;-70
2022/03/01 00:41:29;;;;;;;16.98;8.27;;;6.70;81.40;;;;;;4953883;28;20034;-70
2022/03/01 00:43:55;;;;;;;26.85;9.30;;;6.70;81.50;;;;;;4951291;28;20031;-70
2022/03/01 00:46:22;;;;;;;15.90;8.27;;;6.70;81.50;;;;;;4939901;28;20062;-70
2022/03/01 00:48:48;;;;;;;17.55;8.05;;;6.70;81.60;;;;;;4953570;28;20368;-70
2022/03/01 00:51:14;;;;;;;18.15;9.35;;;6.70;81.70;;;;;;4953564;29;20073;-70
2022/03/01 00:53:39;;;;;;;17.95;10.13;;;6.70;81.60;;;;;;4953118;28;20480;-70
2022/03/01 00:56:05;;;;;;;16.80;9.20;;;6.60;81.60;;;;;;4952325;28;20090;-70
2022/03/01 00:58:31;;;;;;;14.82;8.23;;;6.60;81.60;;;;;;4953430;29;20054;-70
2022/03/01 01:00:57;;;;;;;16.00;7.82;;;6.60;81.70;;;;;;4952910;28;20081;-70
2022/03/01 01:03:23;;;;;;;15.55;8.45;;;6.60;81.80;;;;;;4953835;28;20470;-70
2022/03/01 01:05:48;;;;;;;15.75;8.55;;;6.60;81.90;;;;;;4951333;28;20110;-70
2022/03/01 01:08:14;;;;;;;15.48;7.97;;;6.60;82.10;;;;;;4942765;29;20034;-70
2022/03/01 01:10:40;;;;;;;17.77;8.75;;;6.60;82.20;;;;;;4952268;28;20043;-70
2022/03/01 01:13:06;;;;;;;21.63;9.18;;;6.60;82.20;;;;;;4945477;28;20039;-70
2022/03/01 01:15:32;;;;;;;17.33;8.13;;;6.60;82.20;;;;;;4945984;29;20399;-70
2022/03/01 01:17:57;;;;;;;19.10;9.10;;;6.60;82.10;;;;;;4942892;28;20043;-70
2022/03/01 01:20:23;;;;;;;18.42;9.63;;;6.60;82.00;;;;;;4952569;28;20110;-70
2022/03/01 01:22:49;;;;;;;13.52;7.07;;;6.50;82.20;;;;;;4944513;28;20165;-70
2022/03/01 01:25:18;;;;;;;17.40;8.70;;;6.50;82.30;;;;;;4949734;28;20027;-70
2022/03/01 01:27:47;;;;;;;15.20;7.82;;;6.50;82.30;;;;;;4943584;28;20054;-70
2022/03/01 01:30:15;;;;;;;17.60;9.20;;;6.50;82.40;;;;;;4950862;29;20387;-70
2022/03/01 01:32:42;;;;;;;19.10;8.38;;;6.50;82.20;;;;;;4953310;28;20076;-71
2022/03/01 01:35:12;;;;;;;16.80;7.97;;;6.50;82.20;;;;;;4951487;28;20044;-70
2022/03/01 01:37:39;;;;;;;14.68;7.97;;;6.40;82.20;;;;;;4947348;28;20519;-70
2022/03/01 01:40:10;;;;;;;15.60;8.05;;;6.40;82.30;;;;;;4963310;28;20031;-70
2022/03/01 01:42:35;;;;;;;13.85;8.63;;;6.40;82.20;;;;;;4972149;28;20082;-70
2022/03/01 01:45:02;;;;;;;21.98;9.20;;;6.40;82.20;;;;;;4963132;28;20035;-71
2022/03/01 01:47:28;;;;;;;17.92;9.07;;;6.40;82.20;;;;;;4952482;28;20074;-70
2022/03/01 01:49:53;;;;;;;14.30;8.27;;;6.30;82.10;;;;;;4951307;28;20035;-70
2022/03/01 01:52:19;;;;;;;19.23;9.13;;;6.40;82.30;;;;;;4950367;28;20043;-70
2022/03/01 01:54:45;;;;;;;17.35;9.10;;;6.30;82.20;;;;;;4950526;29;20517;-70
2022/03/01 01:57:19;;;;;;;15.15;8.27;;;6.30;82.20;;;;;;4952042;28;20066;-70
2022/03/01 01:59:46;;;;;;;17.25;8.32;;;6.30;82.20;;;;;;4948178;28;20039;-71
2022/03/01 02:02:13;;;;;;;17.98;9.77;;;6.30;82.20;;;;;;4945650;28;20035;-71
2022/03/01 02:04:40;;;;;;;21.15;9.45;;;6.30;82.30;;;;;;4946585;28;20032;-71
2022/03/01 02:07:06;;;;;;;21.48;9.15;;;6.30;82.30;;;;;;4937521;29;20109;-70
2022/03/01 02:09:32;;;;;;;16.73;8.95;;;6.30;82.30;;;;;;4944143;28;20031;-70
2022/03/01 02:11:58;;;;;;;16.80;7.78;;;6.30;82.40;;;;;;4951855;28;20111;-70
2022/03/01 02:14:23;;;;;;;16.58;8.90;;;6.30;82.60;;;;;;4952661;29;20111;-70
2022/03/01 02:16:49;;;;;;;14.02;8.02;;;6.20;82.50;;;;;;4952193;28;20054;-71
2022/03/01 02:19:15;;;;;;;14.40;7.38;;;6.20;82.60;;;;;;4951919;28;20031;-70
2022/03/01 02:21:49;;;;;;;18.35;8.40;;;6.20;82.60;;;;;;4952538;28;20488;-70
2022/03/01 02:24:18;;;;;;;19.35;9.75;;;6.20;82.60;;;;;;4951809;28;20031;-71
2022/03/01 02:26:45;;;;;;;18.08;9.45;;;6.20;82.60;;;;;;4952649;28;20414;-71
2022/03/01 02:29:10;;;;;;;15.10;7.68;;;6.20;82.70;;;;;;4939494;28;20111;-71
2022/03/01 02:31:37;;;;;;;16.38;8.48;;;6.20;83.10;;;;;;4952033;28;20102;-70
2022/03/01 02:34:03;;;;;;;17.60;8.43;;;6.10;83.20;;;;;;4952222;28;20027;-70
2022/03/01 02:36:29;;;;;;;20.08;9.05;;;6.10;83.10;;;;;;4944714;28;20075;-71
2022/03/01 02:38:55;;;;;;;18.65;9.07;;;6.10;83.10;;;;;;4951809;28;20063;-71
2022/03/01 02:41:20;;;;;;;20.20;8.90;;;6.10;83.10;;;;;;4952178;29;20023;-70
2022/03/01 02:43:46;;;;;;;19.02;8.43;;;6.10;83.10;;;;;;4952283;29;20482;-71
2022/03/01 02:46:12;;;;;;;19.40;6.25;;;6.10;83.30;;;;;;4951005;28;20038;-70
2022/03/01 02:48:37;;;;;;;14.98;7.38;;;6.10;83.50;;;;;;4951730;29;20085;-71
2022/03/01 02:51:03;;;;;;;16.33;7.47;;;6.10;83.80;;;;;;4962761;28;20038;-70
2022/03/01 02:53:29;;;;;;;16.55;8.13;;;6.10;83.70;;;;;;4968592;28;20071;-70
2022/03/01 02:55:54;;;;;;;18.98;8.07;;;6.10;83.60;;;;;;4955208;28;20044;-71
2022/03/01 02:58:20;;;;;;;17.05;8.63;;;6.10;83.70;;;;;;4963777;28;20116;-71
2022/03/01 03:00:46;;;;;;;15.65;8.80;;;6.10;83.70;;;;;;4969832;28;20031;-71
2022/03/01 03:03:12;;;;;;;15.77;8.30;;;6.10;83.60;;;;;;4973542;28;20033;-70
2022/03/01 03:05:38;;;;;;;18.52;8.15;;;6.10;83.50;;;;;;4951098;28;20032;-71
2022/03/01 03:08:05;;;;;;;14.40;7.75;;;6.10;83.70;;;;;;4950457;28;20020;-71
2022/03/01 03:10:33;;;;;;;23.50;9.02;;;6.10;83.70;;;;;;4950180;28;20035;-70
2022/03/01 03:12:59;;;;;;;17.52;9.15;;;6.00;83.80;;;;;;4950756;28;20490;-71
2022/03/01 03:15:25;;;;;;;17.15;9.18;;;6.10;83.80;;;;;;4950634;28;20047;-70
2022/03/01 03:17:54;;;;;;;15.70;7.45;;;6.10;83.90;;;;;;4962238;28;20043;-70
2022/03/01 03:20:21;;;;;;;19.13;9.40;;;6.00;83.80;;;;;;4950087;28;20032;-70
2022/03/01 03:22:47;;;;;;;22.45;9.07;;;6.00;83.80;;;;;;4951063;28;20034;-70
2022/03/01 03:25:13;;;;;;;18.38;8.95;;;6.00;83.90;;;;;;4951419;28;20031;-70
2022/03/01 03:27:39;;;;;;;19.55;9.50;;;5.90;83.90;;;;;;4951016;28;20047;-70
2022/03/01 03:30:06;;;;;;;16.08;9.25;;;5.90;83.90;;;;;;4951637;28;20035;-70
2022/03/01 03:32:33;;;;;;;16.45;8.40;;;5.90;83.90;;;;;;4939862;28;20036;-70
2022/03/01 03:34:59;;;;;;;19.25;9.18;;;5.90;83.90;;;;;;4949880;29;20062;-70
2022/03/01 03:37:24;;;;;;;21.77;8.85;;;5.90;83.90;;;;;;4951466;28;20070;-70
2022/03/01 03:39:50;;;;;;;16.70;8.45;;;5.90;84.00;;;;;;4944715;29;20093;-70
2022/03/01 03:42:16;;;;;;;16.88;9.02;;;5.90;84.00;;;;;;4944664;28;20028;-70
2022/03/01 03:44:42;;;;;;;19.10;9.63;;;5.90;84.10;;;;;;4951508;28;20489;-70
2022/03/01 03:47:09;;;;;;;17.17;8.95;;;5.90;84.00;;;;;;4951525;29;20043;-70
2022/03/01 03:49:35;;;;;;;19.88;9.57;;;5.90;84.10;;;;;;4950767;28;20050;-70
2022/03/01 03:52:02;;;;;;;19.48;9.65;;;5.80;84.40;;;;;;4938685;28;20442;-70
2022/03/01 03:54:28;;;;;;;21.08;8.02;;;5.90;84.50;;;;;;4951235;28;20110;-69
2022/03/01 03:56:54;;;;;;;15.10;7.10;;;5.80;84.60;;;;;;4950221;28;20447;-70
2022/03/01 03:59:20;;;;;;;16.65;8.45;;;5.90;84.80;;;;;;4951471;28;20034;-70
2022/03/01 04:01:45;;;;;;;17.75;8.60;;;5.80;84.70;;;;;;4951267;28;20031;-70
2022/03/01 04:04:11;;;;;;;20.70;9.73;;;5.80;84.80;;;;;;4942832;28;20042;-70
2022/03/01 04:06:37;;;;;;;19.85;8.95;;;5.90;84.90;;;;;;4935698;29;20384;-70
2022/03/01 04:09:05;;;;;;;17.77;9.30;;;5.90;85.00;;;;;;4951100;28;20446;-70
2022/03/01 04:11:31;;;;;;;20.23;10.23;;;5.80;85.00;;;;;;4952461;28;20040;-70
2022/03/01 04:13:57;;;;;;;20.50;9.77;;;5.80;84.90;;;;;;4948249;28;20036;-70
2022/03/01 04:16:23;;;;;;;17.63;8.50;;;5.90;85.00;;;;;;4947184;29;20032;-70
2022/03/01 04:18:49;;;;;;;20.60;9.95;;;5.90;84.90;;;;;;4953493;28;20043;-70
2022/03/01 04:21:16;;;;;;;16.67;8.95;;;5.90;85.00;;;;;;4954454;28;20053;-71
2022/03/01 04:23:41;;;;;;;16.42;8.13;;;5.90;85.00;;;;;;4940570;28;20118;-71
2022/03/01 04:26:07;;;;;;;16.63;7.45;;;5.80;84.90;;;;;;4941418;28;20130;-71
2022/03/01 04:28:33;;;;;;;21.60;9.13;;;5.80;85.10;;;;;;4941868;29;20061;-71
2022/03/01 04:30:59;;;;;;;18.33;8.75;;;5.80;85.30;;;;;;4953126;29;20397;-71
2022/03/01 04:33:30;;;;;;;15.13;7.70;;;5.80;85.30;;;;;;4947401;28;20036;-71
2022/03/01 04:35:59;;;;;;;18.77;8.27;;;5.80;85.20;;;;;;4949188;29;20069;-71
2022/03/01 04:38:25;;;;;;;17.63;8.40;;;5.90;85.40;;;;;;4953107;28;20131;-67
2022/03/01 04:40:52;;;;;;;14.80;8.25;;;5.80;85.70;;;;;;4953753;28;20039;-70
2022/03/01 04:43:22;;;;;;;24.02;9.32;;;5.90;85.40;;;;;;4954053;28;20479;-70
2022/03/01 04:45:48;;;;;;;16.05;8.20;;;5.90;85.40;;;;;;4953093;28;20028;-70
2022/03/01 04:48:14;;;;;;;15.80;7.63;;;5.90;85.40;;;;;;4954032;28;20043;-70
2022/03/01 04:50:40;;;;;;;19.15;8.80;;;5.90;85.60;;;;;;4953775;28;20037;-70
2022/03/01 04:53:05;;;;;;;19.95;9.05;;;5.90;85.50;;;;;;4953071;28;20033;-76
2022/03/01 04:55:32;;;;;;;18.10;8.70;;;5.90;85.60;;;;;;4952626;28;20430;-70
2022/03/01 04:57:58;;;;;;;18.58;9.82;;;5.90;85.90;;;;;;4942614;28;20492;-69
2022/03/01 05:00:24;;;;;;;17.10;7.97;;;5.90;86.30;;;;;;4939495;29;20111;-69
2022/03/01 05:02:49;;;;;;;18.10;8.25;;;5.90;86.20;;;;;;4953726;28;20449;-69
2022/03/01 05:05:16;;;;;;;16.98;8.20;;;6.00;86.20;;;;;;4953461;28;20023;-69
2022/03/01 05:07:44;;;;;;;27.92;9.38;;;6.00;86.20;;;;;;4952731;29;20039;-69
2022/03/01 05:10:11;;;;;;;16.95;8.77;;;6.00;86.00;;;;;;4952488;28;20479;-70
2022/03/01 05:12:49;;;;;;;17.50;9.65;;;6.00;86.00;;;;;;4946554;28;20035;-70
2022/03/01 05:15:16;;;;;;;18.10;9.38;;;6.00;85.90;;;;;;4950679;28;20032;-70
2022/03/01 05:17:42;;;;;;;19.48;9.95;;;6.00;85.70;;;;;;4943839;29;20479;-69
2022/03/01 05:20:09;;;;;;;20.92;10.65;;;6.00;85.50;;;;;;4940587;29;20031;-70
2022/03/01 05:22:35;;;;;;;21.60;8.20;;;6.00;85.50;;;;;;4953193;28;20035;-70
2022/03/01 05:25:02;;;;;;;16.02;9.43;;;6.00;85.80;;;;;;4949213;28;20111;-70
2022/03/01 05:27:29;;;;;;;17.85;9.45;;;6.00;85.80;;;;;;4944501;29;20126;-70
2022/03/01 05:29:54;;;;;;;18.30;8.50;;;6.00;85.80;;;;;;4953410;28;20430;-69
2022/03/01 05:32:20;;;;;;;21.15;10.30;;;6.00;85.70;;;;;;4953604;28;20036;-69
2022/03/01 05:34:46;;;;;;;15.57;8.02;;;6.00;85.50;;;;;;4952281;28;20027;-69
2022/03/01 05:37:12;;;;;;;16.30;7.38;;;6.00;85.60;;;;;;4953383;28;20084;-69
2022/03/01 05:39:38;;;;;;;16.02;7.75;;;5.90;85.70;;;;;;4987465;28;20406;-71
2022/03/01 05:42:04;;;;;;;19.88;7.68;;;6.00;85.80;;;;;;4940722;28;20027;-70
2022/03/01 05:44:29;;;;;;;17.85;8.45;;;6.00;86.00;;;;;;4952192;28;20520;-69
2022/03/01 05:46:55;;;;;;;20.58;9.20;;;6.00;85.90;;;;;;4953037;28;20471;-69
2022/03/01 05:49:21;;;;;;;20.50;10.07;;;6.00;85.80;;;;;;4953959;28;20050;-69
2022/03/01 05:51:49;;;;;;;24.38;9.52;;;6.00;85.80;;;;;;4977770;28;20019;-69
2022/03/01 05:54:15;;;;;;;19.35;9.73;;;6.00;85.70;;;;;;4957378;28;20379;-69
2022/03/01 05:56:41;;;;;;;18.63;9.45;;;6.00;85.60;;;;;;4955042;28;20039;-68
2022/03/01 05:59:07;;;;;;;16.17;8.85;;;6.00;85.60;;;;;;4991403;28;20423;-68
2022/03/01 06:01:32;;;;;;;22.08;8.88;;;6.00;85.70;;;;;;4952117;28;20114;-69
2022/03/01 06:03:58;;;;;;;20.33;8.68;;;6.00;85.80;;;;;;4973002;28;20114;-69
2022/03/01 06:06:26;;;;;;;17.88;8.77;;;6.00;85.80;;;;;;4951955;28;20027;-69
2022/03/01 06:08:52;;;;;;;17.15;8.38;;;6.00;85.70;;;;;;4949780;28;20038;-70
2022/03/01 06:11:17;;;;;;;17.95;8.57;;;6.10;86.00;;;;;;4950496;28;20031;-69
2022/03/01 06:13:43;;;;;;;15.00;7.78;;;6.10;86.30;;;;;;4958558;28;20027;-67
2022/03/01 06:16:09;;;;;;;16.67;8.32;;;6.10;86.00;;;;;;4949621;28;20487;-68
2022/03/01 06:18:35;;;;;;;11.85;6.38;;;6.10;86.10;;;;;;4950255;28;20093;-68
2022/03/01 06:21:01;;;;;;;15.05;9.00;;;6.10;86.10;;;;;;4952832;28;20479;-67
2022/03/01 06:23:27;;;;;;;18.23;9.48;;;6.20;86.00;;;;;;4958696;28;20043;-68
2022/03/01 06:25:53;;;;;;;18.48;8.48;;;6.10;85.80;;;;;;4951536;28;20035;-69
2022/03/01 06:28:19;;;;;;;19.33;8.38;;;6.10;85.60;;;;;;4960390;28;20031;-70
2022/03/01 06:30:44;;;;;;;19.00;8.45;;;6.10;85.50;;;;;;4951759;29;20387;-69
2022/03/01 06:33:18;;;;;;;16.33;8.43;;;6.20;85.50;;;;;;4951233;28;20517;-68
2022/03/01 06:35:44;;;;;;;15.98;7.65;;;6.20;85.50;;;;;;4959039;28;20479;-68
2022/03/01 06:38:10;;;;;;;15.70;8.93;;;6.20;85.50;;;;;;4974636;28;20444;-68
2022/03/01 06:40:36;;;;;;;18.08;9.30;;;6.20;85.60;;;;;;4967899;28;20028;-74
2022/03/01 06:43:03;;;;;;;21.17;9.02;;;6.20;85.50;;;;;;4954008;28;20089;-69
2022/03/01 06:45:29;;;;;;;18.17;8.45;;;6.20;85.50;;;;;;4947635;28;20031;-69
2022/03/01 06:47:55;;;;;;;17.15;8.32;;;6.20;85.70;;;;;;4952648;28;20034;-68
2022/03/01 06:50:21;;;;;;;19.75;8.93;;;6.20;85.80;;;;;;4951374;28;20498;-70
2022/03/01 06:52:47;;;;;;;19.58;9.43;;;6.20;85.80;;;;;;4951374;28;20118;-71
2022/03/01 06:55:13;;;;;;;19.00;10.18;;;6.20;85.70;;;;;;4949443;28;20193;-68
2022/03/01 06:57:43;;;;;;;17.00;9.02;;;6.20;85.70;;;;;;4950603;28;20051;-68
2022/03/01 07:00:10;;;;;;;17.52;8.85;;;6.20;85.50;;;;;;4948239;28;20509;-68
2022/03/01 07:02:38;;;;;;;22.02;10.35;;;6.10;85.60;;;;;;4948704;28;20027;-68
2022/03/01 07:05:09;;;;;;;18.65;9.93;;;6.10;85.60;;;;;;4947933;28;20383;-68
2022/03/01 07:07:36;;;;;;;18.23;8.65;;;6.10;85.70;;;;;;4942466;29;20039;-68
2022/03/01 07:10:04;;;;;;;17.90;8.10;;;6.10;85.80;;;;;;4947637;28;20035;-68
2022/03/01 07:12:30;;;;;;;24.70;9.32;;;6.10;85.80;;;;;;4950947;29;20043;-68
2022/03/01 07:14:56;;;;;;;20.35;9.60;;;6.10;85.90;;;;;;4951194;28;20032;-68
2022/03/01 07:17:22;;;;;;;19.80;9.18;;;6.00;85.90;;;;;;4951188;28;20132;-68
2022/03/01 07:19:49;;;;;;;18.85;8.52;;;6.10;86.00;;;;;;4950475;29;20379;-68
2022/03/01 07:22:15;;;;;;;17.30;8.82;;;6.10;86.30;;;;;;4951449;28;20050;-68
2022/03/01 07:24:41;;;;;;;17.40;8.50;;;6.10;86.50;;;;;;4951495;28;20035;-68
2022/03/01 07:27:06;;;;;;;19.10;7.80;;;6.10;86.70;;;;;;4943890;28;20054;-68
2022/03/01 07:29:33;;;;;;;15.82;8.10;;;6.10;86.60;;;;;;4947254;28;20032;-68
2022/03/01 07:31:59;;;;;;;17.80;8.90;;;6.10;86.80;;;;;;4943389;28;20032;-68
2022/03/01 07:34:25;;;;;;;18.50;8.52;;;6.10;86.70;;;;;;4945097;28;20521;-68
2022/03/01 07:36:51;;;;;;;21.80;9.55;;;6.20;86.80;;;;;;4933102;28;20046;-68
2022/03/01 07:39:17;;;;;;;22.42;8.63;;;6.20;87.30;;;;;;4932943;28;20031;-68
2022/03/01 07:41:43;;;;;;;17.50;8.27;;;6.30;86.70;;;;;;4940959;28;20063;-67
2022/03/01 07:44:11;;;;;;;16.58;9.30;;;6.30;86.80;;;;;;4951371;28;20028;-68
2022/03/01 07:46:36;;;;;;;20.02;10.10;;;6.30;86.80;;;;;;4953583;28;20501;-67
2022/03/01 07:49:03;;;;;;;18.27;9.27;;;6.40;86.90;;;;;;4954035;28;20035;-67
2022/03/01 07:51:28;;;;;;;17.23;8.80;;;6.40;86.80;;;;;;4954962;28;20031;-68
2022/03/01 07:53:54;;;;;;;17.40;8.88;;;6.40;86.70;;;;;;4954602;28;20023;-68
2022/03/01 07:56:21;;;;;;;21.17;10.32;;;6.50;86.80;;;;;;4953825;28;20047;-68
2022/03/01 07:58:48;;;;;;;18.30;8.93;;;6.50;86.70;;;;;;4954541;28;20119;-68
2022/03/01 08:01:14;;;;;;;17.42;8.45;;;6.60;86.70;;;;;;4954724;28;20031;-68
2022/03/01 08:03:40;;;;;;;20.33;8.75;;;6.50;86.60;;;;;;4953677;28;20478;-68
2022/03/01 08:06:06;;;;;;;22.35;9.00;;;6.60;86.80;;;;;;4944055;28;20039;-68
2022/03/01 08:08:32;;;;;;;20.30;10.23;;;6.60;86.70;;;;;;4952966;28;20050;-68
2022/03/01 08:10:58;;;;;;;20.05;8.30;;;6.70;86.80;;;;;;4953917;28;20057;-68
2022/03/01 08:13:24;;;;;;;19.08;8.43;;;6.70;86.60;;;;;;4954486;28;20047;-68
2022/03/01 08:15:50;;;;;;;18.58;9.32;;;6.70;86.60;;;;;;4953766;28;20475;-68
2022/03/01 08:18:16;;;;;;;17.63;10.00;;;6.70;86.60;;;;;;4954300;28;20043;-67
2022/03/01 08:20:42;;;;;;;21.33;9.70;;;6.70;86.30;;;;;;4947261;29;20368;-68
2022/03/01 08:23:07;;;;;;;17.73;8.73;;;6.70;86.30;;;;;;4937056;29;20054;-68
2022/03/01 08:25:33;;;;;;;17.48;9.00;;;6.80;86.40;;;;;;4954113;28;20052;-68
2022/03/01 08:28:00;;;;;;;17.13;9.20;;;6.80;86.50;;;;;;4951696;29;20498;-68
2022/03/01 08:30:27;;;;;;;19.45;8.38;;;6.80;86.50;;;;;;4942873;28;20038;-68
2022/03/01 08:32:52;;;;;;;15.68;8.25;;;6.80;86.60;;;;;;4953396;29;20035;-68
2022/03/01 08:35:19;;;;;;;18.65;8.27;;;6.90;86.50;;;;;;4954007;28;20475;-68
2022/03/01 08:37:45;;;;;;;17.98;8.73;;;6.90;86.40;;;;;;4953142;28;20494;-68
2022/03/01 08:40:12;;;;;;;16.25;8.38;;;6.90;86.40;;;;;;4953741;28;20066;-68
2022/03/01 08:42:38;;;;;;;19.05;9.13;;;6.90;86.30;;;;;;4954012;29;20126;-68
2022/03/01 08:45:05;;;;;;;13.60;7.50;;;7.00;86.40;;;;;;4952944;28;20110;-68
2022/03/01 08:47:31;;;;;;;18.42;8.60;;;7.10;87.40;;;;;;4953581;29;20027;-68
2022/03/01 08:49:57;;;;;;;23.10;8.20;;;7.00;87.20;;;;;;4955897;28;20047;-67
2022/03/01 08:52:23;;;;;;;17.15;8.70;;;7.00;87.10;;;;;;4951790;29;20023;-67
2022/03/01 08:54:48;;;;;;;11.77;5.55;;;7.00;87.10;;;;;;4952848;28;20551;-69
2022/03/01 08:57:14;;;;;;;16.15;7.22;;;7.10;87.80;;;;;;4952429;28;20067;-69
2022/03/01 08:59:42;;;;;;;22.52;9.30;;;7.10;88.50;;;;;;4941804;28;20039;-68
2022/03/01 09:02:07;;;;;;;20.00;8.63;;;7.10;88.30;;;;;;4940528;28;20030;-69
2022/03/01 09:04:33;;;;;;;15.23;7.35;;;7.10;88.40;;;;;;4953682;28;20035;-69
2022/03/01 09:06:59;;;;;;;18.67;8.18;;;7.20;88.20;;;;;;4952555;29;20038;-69
2022/03/01 09:09:24;;;;;;;16.95;8.77;;;7.20;88.10;;;;;;4953766;28;20073;-69
2022/03/01 09:11:50;;;;;;;19.60;9.98;;;7.30;88.10;;;;;;4953406;29;20028;-69
2022/03/01 09:14:15;;;;;;;26.00;9.55;;;7.30;88.00;;;;;;4952924;28;20037;-70
2022/03/01 09:16:41;;;;;;;14.40;7.18;;;7.40;87.70;;;;;;4952423;28;20112;-69
2022/03/01 09:19:10;;;;;;;18.92;8.85;;;7.40;87.80;;;;;;4939272;29;20027;-70
2022/03/01 09:21:35;;;;;;;15.13;7.28;;;7.50;87.90;;;;;;4951043;28;20122;-69
2022/03/01 09:24:01;;;;;;;20.13;8.82;;;7.50;88.30;;;;;;4941968;28;20153;-69
2022/03/01 09:26:27;;;;;;;21.40;9.32;;;7.50;88.70;;;;;;4950371;28;20035;-69
2022/03/01 09:28:52;;;;;;;17.52;8.90;;;7.50;88.50;;;;;;4934174;28;20035;-69
2022/03/01 09:31:21;;;;;;;18.67;8.85;;;7.50;88.90;;;;;;4948672;28;20035;-70
2022/03/01 09:33:46;;;;;;;19.23;9.65;;;7.50;89.40;;;;;;4952565;28;20035;-70
2022/03/01 09:36:13;;;;;;;19.90;9.63;;;7.50;89.90;;;;;;4952858;28;20027;-70
2022/03/01 09:38:40;;;;;;;20.10;8.60;;;7.50;89.60;;;;;;4952878;28;20093;-70
2022/03/01 09:41:06;;;;;;;18.83;7.07;;;7.50;90.00;;;;;;4952384;28;20015;-69
2022/03/01 09:43:36;;;;;;;19.13;9.20;;;7.60;90.10;;;;;;4953435;28;20039;-69
2022/03/01 09:46:02;;;;;;;21.38;9.77;;;7.60;90.20;;;;;;4952729;29;20043;-69
2022/03/01 09:48:27;;;;;;;21.95;8.88;;;7.60;90.20;;;;;;4952472;28;20054;-70
2022/03/01 09:50:54;;;;;;;14.82;7.68;;;7.60;90.20;;;;;;4952826;28;20038;-69
2022/03/01 09:53:19;;;;;;;15.93;6.38;;;7.70;90.30;;;;;;4952948;29;20483;-70
2022/03/01 09:55:45;;;;;;;20.08;8.18;;;7.70;90.40;;;;;;4951795;29;20093;-69
2022/03/01 09:58:11;;;;;;;16.70;7.60;;;7.70;90.50;;;;;;4939394;28;20101;-69
2022/03/01 10:00:36;;;;;;;21.17;9.07;;;7.70;90.60;;;;;;4952065;29;20035;-69
2022/03/01 10:03:02;;;;;;;26.02;9.80;;;7.70;90.40;;;;;;4951910;28;20039;-69
2022/03/01 10:05:44;;;;;;;14.40;6.95;;;7.70;90.30;;;;;;4952481;28;20032;-69
2022/03/01 10:08:14;;;;;;;21.25;9.52;;;7.70;90.50;;;;;;4952295;28;20074;-70
2022/03/01 10:10:50;;;;;;;18.50;9.02;;;7.80;90.50;;;;;;4961300;28;20123;-69
2022/03/01 10:13:23;;;;;;;17.10;8.95;;;7.80;90.30;;;;;;4952589;28;20035;-69
2022/03/01 10:16:10;;;;;;;21.27;9.90;;;7.90;90.10;;;;;;4939887;29;20077;-71
2022/03/01 10:18:41;;;;;;;18.17;8.90;;;7.90;90.00;;;;;;4952450;29;20053;-70
2022/03/01 10:21:11;;;;;;;19.25;8.45;;;8.00;89.80;;;;;;4941436;28;20040;-70
2022/03/01 10:23:48;;;;;;;20.58;8.52;;;8.10;89.80;;;;;;4945396;29;20101;-71
2022/03/01 10:26:20;;;;;;;13.73;5.95;;;8.10;90.00;;;;;;4946791;28;20104;-71
2022/03/01 10:28:47;;;;;;;20.52;7.18;;;8.10;90.20;;;;;;4954935;28;20104;-69
2022/03/01 10:31:16;;;;;;;18.20;9.98;;;8.20;90.40;;;;;;4949613;28;20039;-72
2022/03/01 10:33:54;;;;;;;7.72;3.53;;;8.20;90.40;;;;;;4942766;29;20043;-71
2022/03/01 10:36:23;;;;;;;6.53;3.20;;;8.20;90.60;;;;;;4951041;28;20106;-71
2022/03/01 10:38:56;;;;;;;15.77;8.35;;;8.20;90.70;;;;;;4951586;29;20035;-72
2022/03/01 10:41:24;;;;;;;15.43;7.32;;;8.30;90.70;;;;;;4952345;28;20042;-72
2022/03/01 10:43:56;;;;;;;5.20;3.55;;;8.30;90.70;;;;;;4951622;28;20074;-72
2022/03/01 10:46:21;;;;;;;12.73;5.35;;;8.40;91.00;;;;;;4947688;29;20031;-72
2022/03/01 10:48:57;;;;;;;16.23;6.80;;;8.50;91.00;;;;;;4952106;28;20038;-72
2022/03/01 10:51:23;;;;;;;5.65;2.53;;;8.50;91.00;;;;;;4948941;29;20076;-72
2022/03/01 10:53:48;;;;;;;15.15;7.50;;;8.60;91.30;;;;;;4951514;28;20531;-72
2022/03/01 10:56:16;;;;;;;4.20;2.75;;;8.60;91.30;;;;;;4962153;28;20163;-72
2022/03/01 10:58:43;;;;;;;15.13;7.45;;;8.60;91.70;;;;;;4961705;28;20087;-72
2022/03/01 11:01:10;;;;;;;15.38;6.55;;;8.60;91.70;;;;;;4973383;28;20061;-72
2022/03/01 11:03:37;;;;;;;13.00;6.50;;;8.60;91.60;;;;;;4973478;28;20113;-72
2022/03/01 11:06:04;;;;;;;15.63;8.00;;;8.60;91.80;;;;;;4950356;28;20029;-72
2022/03/01 11:08:39;;;;;;;13.23;5.35;;;8.70;91.70;;;;;;4962146;28;20032;-72
2022/03/01 11:11:10;;;;;;;19.13;6.40;;;8.70;91.80;;;;;;4958743;28;20042;-72
2022/03/01 11:13:39;;;;;;;15.73;7.68;;;8.70;91.80;;;;;;4950625;28;20023;-72
2022/03/01 11:16:35;;;;;;;21.20;9.68;;;8.80;91.80;;;;;;4962056;28;20049;-72
2022/03/01 11:19:27;;;;;;;16.45;8.60;;;8.80;91.50;;;;;;4950475;28;20130;-72
2022/03/01 11:21:54;;;;;;;19.83;9.80;;;8.90;91.20;;;;;;4950359;28;20036;-72
2022/03/01 11:24:21;;;;;;;13.90;6.38;;;8.90;91.30;;;;;;4966769;28;20438;-72
2022/03/01 11:26:47;;;;;;;17.20;6.57;;;9.00;91.40;;;;;;4977287;28;20112;-72
2022/03/01 11:29:15;;;;;;;12.93;6.88;;;9.10;91.50;;;;;;4973138;28;20074;-72
2022/03/01 11:31:43;;;;;;;17.50;8.55;;;9.10;91.60;;;;;;4973284;28;20065;-72
2022/03/01 11:34:16;;;;;;;13.40;6.05;;;9.10;91.40;;;;;;4971211;28;20043;-72
2022/03/01 11:36:52;;;;;;;19.85;9.27;;;9.10;91.50;;;;;;4959971;28;20035;-72
2022/03/01 11:39:23;;;;;;;25.27;9.63;;;9.20;91.30;;;;;;4972870;28;20051;-72
2022/03/01 11:41:52;;;;;;;12.38;5.90;;;9.20;91.20;;;;;;4961350;28;20017;-72
2022/03/01 11:44:23;;;;;;;19.58;8.43;;;9.30;91.50;;;;;;4948268;28;20028;-72
2022/03/01 11:46:50;;;;;;;13.95;7.10;;;9.30;91.70;;;;;;4969978;28;20027;-75
2022/03/01 11:49:20;;;;;;;14.90;8.05;;;9.30;91.80;;;;;;4943368;28;20039;-70
2022/03/01 11:51:56;;;;;;;20.35;7.90;;;9.30;91.80;;;;;;4951118;28;20038;-71
2022/03/01 11:54:32;;;;;;;17.00;8.48;;;9.30;91.70;;;;;;4939769;28;20123;-71
2022/03/01 11:56:59;;;;;;;;;;;9.30;91.80;;;;;;4950964;29;20487;-71
2022/03/01 11:59:26;;;;;;;12.25;4.88;;;9.30;92.10;;;;;;4951132;28;19936;-71
2022/03/01 12:01:52;;;;;;;14.65;7.10;;;9.30;92.20;;;;;;4938224;29;20027;-71
2022/03/01 12:04:30;;;;;;;16.75;8.15;;;9.30;92.20;;;;;;4949938;28;20039;-73
2022/03/01 12:06:57;;;;;;;18.63;8.85;;;9.30;92.10;;;;;;4936670;28;20024;-72
2022/03/01 12:09:26;;;;;;;14.45;7.28;;;9.40;92.10;;;;;;4941862;28;20114;-73
2022/03/01 12:12:07;;;;;;;23.15;8.02;;;9.40;92.10;;;;;;4948381;28;20045;-73
2022/03/01 12:14:34;;;;;;;16.75;8.40;;;9.40;91.90;;;;;;4954230;28;20393;-73
2022/03/01 12:17:16;;;;;;;15.13;8.23;;;9.50;91.90;;;;;;4949248;28;20036;-73
2022/03/01 12:19:42;;;;;;;17.85;8.52;;;9.50;92.00;;;;;;4950709;28;20039;-73
2022/03/01 12:22:08;;;;;;;15.48;7.80;;;9.50;92.00;;;;;;4949851;28;20793;-73
2022/03/01 12:24:33;;;;;;;21.73;10.02;;;9.60;91.90;;;;;;4951149;28;20089;-73
2022/03/01 12:27:02;;;;;;;16.27;8.02;;;9.60;91.60;;;;;;4948690;28;20077;-73
2022/03/01 12:29:30;;;;;;;17.30;8.65;;;9.60;91.40;;;;;;4947836;28;20073;-72
2022/03/01 12:32:07;;;;;;;19.58;9.75;;;9.70;91.30;;;;;;4950938;28;20114;-72
2022/03/01 12:34:35;;;;;;;19.83;9.15;;;9.70;91.30;;;;;;4953137;28;20386;-71
2022/03/01 12:37:06;;;;;;;18.95;7.60;;;9.70;91.40;;;;;;4941788;29;20118;-71
2022/03/01 12:39:33;;;;;;;21.08;9.85;;;9.80;91.30;;;;;;4953042;28;20039;-71
2022/03/01 12:41:59;;;;;;;22.33;10.07;;;9.80;91.10;;;;;;4975654;28;20053;-71
2022/03/01 12:44:27;;;;;;;18.38;9.88;;;9.90;90.50;;;;;;4952276;29;20042;-71
2022/03/01 12:46:54;;;;;;;21.20;10.80;;;9.90;90.00;;;;;;4964491;28;20108;-71
2022/03/01 12:49:19;;;;;;;16.73;9.55;;;9.90;88.80;;;;;;4962758;28;20039;-71